Time;durP1;ratioP1;P1;durP2;ratioP2;P2;SDS_P1;SDS_P2;PMS_P1;PMS_P2;Temp;Humidity;BMP_temperature;BMP_pressure;BME280_temperature;BME280_humidity;BME280_pressure;Samples;Min_cycle;Max_cycle;Signal;HPM_P1;HPM_P2
2021/05/29 00:02:25;;;;;;;8.70;5.90;;;8.60;99.90;;;;;;5036976;28;20498;-48
2021/05/29 00:04:54;;;;;;;6.90;6.20;;;8.60;99.90;;;;;;5026143;28;20990;-52
2021/05/29 00:07:20;;;;;;;6.40;5.80;;;8.60;99.90;;;;;;5036117;28;20466;-52
2021/05/29 00:09:47;;;;;;;6.83;6.20;;;8.60;99.90;;;;;;5036405;28;20997;-47
2021/05/29 00:12:14;;;;;;;6.93;5.70;;;8.60;99.90;;;;;;5036393;28;20466;-52
2021/05/29 00:14:41;;;;;;;6.00;5.50;;;8.50;99.90;;;;;;5017333;28;20464;-52
2021/05/29 00:17:10;;;;;;;6.30;5.73;;;8.50;99.90;;;;;;5017040;28;20475;-49
2021/05/29 00:19:37;;;;;;;6.10;5.50;;;8.40;99.90;;;;;;5019571;28;20555;-48
2021/05/29 00:22:06;;;;;;;7.37;5.60;;;8.40;99.90;;;;;;5031511;28;20481;-53
2021/05/29 00:24:33;;;;;;;7.60;6.80;;;8.40;99.90;;;;;;5040828;28;20463;-56
2021/05/29 00:27:00;;;;;;;6.47;5.87;;;8.40;99.90;;;;;;5040648;28;20462;-51
2021/05/29 00:29:26;;;;;;;6.10;5.60;;;8.40;99.90;;;;;;5041279;28;20526;-49
2021/05/29 00:31:53;;;;;;;8.07;6.27;;;8.40;99.90;;;;;;5041906;28;20540;-49
2021/05/29 00:34:20;;;;;;;8.13;5.43;;;8.40;99.90;;;;;;5041094;28;20895;-51
2021/05/29 00:36:51;;;;;;;5.40;4.90;;;8.40;99.90;;;;;;5040359;28;20495;-53
2021/05/29 00:39:19;;;;;;;6.13;5.47;;;8.40;99.90;;;;;;5039890;28;20924;-51
2021/05/29 00:41:46;;;;;;;6.10;5.50;;;8.40;99.90;;;;;;5040849;28;20521;-47
2021/05/29 00:44:15;;;;;;;6.73;6.10;;;8.40;99.90;;;;;;5040484;28;20470;-47
2021/05/29 00:46:41;;;;;;;6.30;5.70;;;8.40;99.90;;;;;;5040832;28;20437;-56
2021/05/29 00:49:11;;;;;;;6.53;5.40;;;8.40;99.90;;;;;;5040587;28;20491;-53
2021/05/29 00:51:41;;;;;;;6.30;5.70;;;8.40;99.90;;;;;;5040729;28;20470;-56
2021/05/29 00:54:10;;;;;;;6.10;5.50;;;8.40;99.90;;;;;;5040479;28;20470;-53
2021/05/29 00:56:38;;;;;;;5.70;5.27;;;8.30;99.90;;;;;;5040512;28;20459;-54
2021/05/29 00:59:05;;;;;;;7.77;5.40;;;8.20;99.90;;;;;;5040357;28;20462;-55
2021/05/29 01:01:32;;;;;;;9.77;4.97;;;8.20;99.90;;;;;;5040982;28;20467;-46
2021/05/29 02:14:43;;;;;;;7.67;6.50;;;7.20;99.90;;;;;;4009959;22;20495;-56
2021/05/29 02:17:10;;;;;;;7.00;6.30;;;7.10;99.90;;;;;;5040122;28;20459;-52
2021/05/29 02:19:37;;;;;;;6.60;6.03;;;7.10;99.90;;;;;;5039103;28;20460;-54
2021/05/29 02:22:04;;;;;;;7.33;6.33;;;7.10;99.90;;;;;;5038481;28;20434;-51
2021/05/29 02:24:31;;;;;;;6.03;5.43;;;7.10;99.90;;;;;;5038899;28;20459;-50
2021/05/29 02:26:57;;;;;;;7.37;5.93;;;7.10;99.90;;;;;;5038523;28;20463;-54
2021/05/29 02:29:24;;;;;;;6.47;5.87;;;7.10;99.90;;;;;;5038601;28;20487;-53
2021/05/29 02:31:52;;;;;;;7.37;6.57;;;7.00;99.90;;;;;;5038841;28;20473;-57
2021/05/29 02:34:18;;;;;;;7.83;5.77;;;7.00;99.90;;;;;;5038678;28;20894;-53
2021/05/29 02:36:45;;;;;;;8.33;6.80;;;7.00;99.90;;;;;;5038632;28;20613;-49
2021/05/29 02:39:11;;;;;;;6.27;5.67;;;6.90;99.90;;;;;;5037991;28;20451;-51
2021/05/29 02:41:38;;;;;;;7.63;6.93;;;6.90;99.90;;;;;;5038631;28;20581;-47
2021/05/29 02:44:05;;;;;;;7.57;6.87;;;6.90;99.90;;;;;;5038259;28;20470;-55
2021/05/29 02:46:32;;;;;;;6.50;5.80;;;6.90;99.90;;;;;;5038616;28;20474;-52
2021/05/29 02:48:59;;;;;;;7.77;5.97;;;6.90;99.90;;;;;;5037946;28;20556;-56
2021/05/29 02:51:26;;;;;;;12.37;6.57;;;6.90;99.90;;;;;;5038512;28;20462;-54
2021/05/29 02:53:53;;;;;;;9.07;6.80;;;6.80;99.90;;;;;;5038034;28;20470;-57
2021/05/29 02:56:19;;;;;;;6.50;5.90;;;6.80;99.90;;;;;;5038181;28;20467;-56
2021/05/29 02:58:46;;;;;;;6.47;5.87;;;6.80;99.90;;;;;;5038284;28;20506;-51
2021/05/29 03:01:12;;;;;;;13.13;7.37;;;6.80;99.90;;;;;;5038117;28;20467;-51
2021/05/29 03:03:41;;;;;;;8.10;6.67;;;6.70;99.90;;;;;;5028855;28;20467;-54
2021/05/29 03:06:11;;;;;;;10.00;6.37;;;6.70;99.90;;;;;;5036995;28;20463;-56
2021/05/29 03:08:38;;;;;;;8.07;6.17;;;6.70;99.90;;;;;;5036911;28;20486;-56
2021/05/29 03:11:06;;;;;;;8.43;6.13;;;6.70;99.90;;;;;;5038039;28;20870;-55
2021/05/29 03:13:33;;;;;;;16.23;6.67;;;6.70;99.90;;;;;;5037464;28;20552;-57
2021/05/29 03:15:59;;;;;;;6.40;5.80;;;6.70;99.90;;;;;;5037862;28;20491;-56
2021/05/29 03:18:27;;;;;;;6.50;5.90;;;6.60;99.90;;;;;;5037463;28;20470;-56
2021/05/29 03:20:53;;;;;;;6.50;5.90;;;6.60;99.90;;;;;;5037603;28;20471;-55
2021/05/29 03:23:21;;;;;;;6.53;5.50;;;6.50;99.90;;;;;;5038093;28;20781;-50
2021/05/29 03:25:48;;;;;;;7.10;6.13;;;6.60;99.90;;;;;;5037939;28;20437;-54
2021/05/29 03:28:14;;;;;;;7.50;6.20;;;6.60;99.90;;;;;;5037605;28;20463;-55
2021/05/29 03:30:43;;;;;;;6.63;5.80;;;6.60;99.90;;;;;;5037540;28;20583;-48
2021/05/29 03:33:11;;;;;;;7.73;5.40;;;6.50;99.90;;;;;;5037139;28;20474;-53
2021/05/29 03:35:38;;;;;;;7.13;6.20;;;6.50;99.90;;;;;;5037375;28;20467;-48
2021/05/29 03:38:07;;;;;;;7.27;6.13;;;6.60;99.90;;;;;;5037147;28;20529;-56
2021/05/29 03:40:37;;;;;;;6.53;5.93;;;6.50;99.90;;;;;;5037473;28;20463;-51
2021/05/29 03:43:06;;;;;;;6.37;5.57;;;6.40;99.90;;;;;;5037489;28;20506;-55
2021/05/29 03:45:33;;;;;;;7.10;6.13;;;6.40;99.90;;;;;;5037297;28;20445;-55
2021/05/29 04:27:10;;;;;;;7.53;6.73;;;6.70;99.90;;;;;;5087950;22;20939;-53
2021/05/29 04:29:36;;;;;;;6.40;5.80;;;6.80;99.90;;;;;;5017889;28;20506;-56
2021/05/29 04:32:04;;;;;;;6.87;6.20;;;6.80;99.90;;;;;;5017472;28;20487;-57
2021/05/29 04:34:31;;;;;;;7.90;7.20;;;6.80;99.90;;;;;;5017061;28;20467;-56
2021/05/29 04:36:57;;;;;;;8.00;6.40;;;6.90;99.90;;;;;;5017479;28;20955;-54
2021/05/29 04:39:24;;;;;;;7.50;6.47;;;6.90;99.90;;;;;;5017097;28;20452;-49
2021/05/29 04:41:50;;;;;;;8.37;6.87;;;6.90;99.90;;;;;;5016621;28;20467;-57
2021/05/29 04:44:18;;;;;;;6.80;6.20;;;7.00;99.90;;;;;;5016845;28;20464;-58
2021/05/29 04:46:50;;;;;;;9.17;7.00;;;7.00;99.90;;;;;;5016637;28;20475;-58
2021/05/29 04:49:18;;;;;;;10.50;7.80;;;7.10;99.90;;;;;;5017242;28;20502;-58
2021/05/29 04:51:48;;;;;;;7.90;7.20;;;7.20;99.90;;;;;;5016505;28;20904;-58
2021/05/29 04:54:15;;;;;;;10.27;9.27;;;7.30;99.90;;;;;;5016948;28;20438;-58
2021/05/29 04:56:44;;;;;;;10.97;8.90;;;7.40;99.90;;;;;;5017041;28;20497;-56
2021/05/29 04:59:11;;;;;;;9.70;8.80;;;7.60;99.90;;;;;;5016912;28;20467;-53
2021/05/29 05:01:39;;;;;;;9.30;8.33;;;7.60;99.90;;;;;;5016863;28;20483;-57
2021/05/29 05:04:08;;;;;;;10.97;9.97;;;7.70;99.90;;;;;;5007572;28;20515;-55
2021/05/29 05:06:35;;;;;;;9.67;8.63;;;7.80;99.90;;;;;;5017820;28;20431;-55
2021/05/29 05:09:03;;;;;;;10.90;9.80;;;7.90;99.90;;;;;;5019870;28;20484;-56
2021/05/29 05:11:30;;;;;;;10.70;9.70;;;8.00;99.90;;;;;;5019931;28;20879;-57
2021/05/29 05:13:56;;;;;;;10.73;9.60;;;8.10;99.90;;;;;;5019433;28;20449;-52
2021/05/29 05:16:23;;;;;;;10.53;9.50;;;8.20;99.90;;;;;;5020109;28;20464;-55
2021/05/29 05:18:50;;;;;;;11.10;9.90;;;8.30;99.90;;;;;;5020654;28;20885;-58
2021/05/29 05:21:23;;;;;;;10.27;9.17;;;8.50;99.90;;;;;;5019993;28;20452;-54
2021/05/29 05:23:54;;;;;;;11.07;9.40;;;8.60;99.90;;;;;;5020554;28;20795;-56
2021/05/29 05:26:21;;;;;;;12.10;10.80;;;8.70;99.90;;;;;;5019686;28;20483;-57
2021/05/29 05:28:48;;;;;;;10.97;9.87;;;8.90;99.90;;;;;;5019844;28;20499;-57
2021/05/29 05:31:14;;;;;;;11.20;9.63;;;9.10;99.90;;;;;;5020143;28;20451;-53
2021/05/29 05:33:44;;;;;;;11.53;10.30;;;9.20;99.90;;;;;;5019708;28;20827;-55
2021/05/29 05:36:12;;;;;;;11.57;10.37;;;9.40;99.90;;;;;;5019364;28;20464;-57
2021/05/29 05:38:39;;;;;;;12.13;10.33;;;9.60;99.90;;;;;;5019470;28;20431;-58
2021/05/29 05:41:07;;;;;;;11.00;9.90;;;9.80;99.90;;;;;;5019910;28;20742;-58
2021/05/29 05:43:35;;;;;;;10.03;8.87;;;10.10;99.90;;;;;;5019768;28;20928;-58
2021/05/29 05:46:05;;;;;;;11.40;10.20;;;10.30;99.90;;;;;;5019611;28;20555;-58
2021/05/29 05:48:32;;;;;;;11.40;10.20;;;10.70;99.90;;;;;;5019507;28;20499;-58
2021/05/29 05:51:01;;;;;;;10.83;9.83;;;10.90;99.90;;;;;;5019496;28;20464;-58
2021/05/29 05:53:30;;;;;;;11.97;10.77;;;11.30;99.90;;;;;;5019354;28;20464;-58
2021/05/29 05:56:00;;;;;;;12.70;11.43;;;11.50;99.90;;;;;;5019645;28;20499;-58
2021/05/29 05:58:27;;;;;;;13.30;11.90;;;11.90;99.90;;;;;;5019303;28;20468;-58
2021/05/29 06:00:54;;;;;;;13.43;12.13;;;12.20;99.90;;;;;;5019438;28;20765;-58
2021/05/29 06:03:21;;;;;;;14.00;11.30;;;12.30;99.90;;;;;;5011394;28;20578;-58
2021/05/29 06:05:49;;;;;;;11.70;10.57;;;12.60;99.90;;;;;;5016818;28;20531;-56
2021/05/29 06:08:16;;;;;;;12.37;11.17;;;12.70;99.90;;;;;;5018668;28;20544;-54
2021/05/29 06:10:44;;;;;;;14.83;11.33;;;12.80;99.90;;;;;;5018851;28;20503;-52
2021/05/29 06:13:15;;;;;;;12.47;11.27;;;13.00;99.90;;;;;;5019020;28;20467;-58
2021/05/29 06:21:12;;;;;;;12.40;10.70;;;13.60;99.90;;;;;;5018665;28;20440;-53
2021/05/29 06:23:41;;;;;;;10.60;9.50;;;14.00;99.90;;;;;;5019086;28;20870;-56
2021/05/29 06:26:09;;;;;;;10.47;9.57;;;14.30;99.90;;;;;;5018460;28;20538;-52
2021/05/29 06:28:36;;;;;;;10.43;9.53;;;14.50;99.90;;;;;;5018668;28;20912;-58
2021/05/29 06:31:04;;;;;;;10.60;9.50;;;14.80;99.90;;;;;;5018775;28;20463;-58
2021/05/29 06:33:31;;;;;;;9.97;8.97;;;14.90;99.90;;;;;;5019227;28;20519;-52
2021/05/29 06:35:57;;;;;;;9.47;8.57;;;15.10;99.90;;;;;;5019006;28;20442;-55
2021/05/29 06:38:24;;;;;;;9.50;8.60;;;15.40;99.90;;;;;;5018685;28;20452;-56
2021/05/29 06:40:51;;;;;;;9.93;9.03;;;15.70;99.90;;;;;;5018564;28;20464;-58
2021/05/29 06:43:19;;;;;;;8.80;8.10;;;16.00;99.90;;;;;;5019067;28;20475;-57
2021/05/29 06:45:46;;;;;;;10.00;8.97;;;15.90;99.90;;;;;;5018140;28;20463;-56
2021/05/29 06:48:14;;;;;;;8.27;7.47;;;16.30;99.90;;;;;;5019011;28;20464;-56
2021/05/29 06:50:47;;;;;;;7.90;7.20;;;16.30;99.90;;;;;;5018450;28;20496;-53
2021/05/29 06:53:17;;;;;;;7.90;7.20;;;16.70;99.90;;;;;;5018664;28;20472;-57
2021/05/29 06:58:40;;;;;;;7.83;7.13;;;17.40;99.90;;;;;;5018147;28;20463;-54
2021/05/29 07:01:07;;;;;;;7.37;6.73;;;17.80;99.90;;;;;;5018564;28;20463;-57
2021/05/29 07:03:34;;;;;;;7.27;6.60;;;18.00;99.10;;;;;;5009811;28;20468;-58
2021/05/29 07:06:01;;;;;;;7.73;6.83;;;18.10;98.70;;;;;;5014451;28;20467;-56
2021/05/29 07:08:27;;;;;;;7.53;6.83;;;18.10;97.80;;;;;;5017749;28;20464;-58
2021/05/29 07:10:54;;;;;;;7.33;6.63;;;18.30;97.40;;;;;;5018028;28;20550;-58
2021/05/29 07:13:20;;;;;;;7.67;6.87;;;18.50;96.60;;;;;;5017829;28;20520;-58
2021/05/29 07:15:48;;;;;;;7.43;6.70;;;18.60;95.10;;;;;;5018187;28;20886;-58
2021/05/29 07:18:15;;;;;;;7.67;7.07;;;18.70;95.70;;;;;;5017988;28;20478;-58
2021/05/29 07:20:44;;;;;;;6.87;6.20;;;18.80;94.30;;;;;;5017494;28;20884;-54
2021/05/29 07:23:13;;;;;;;6.37;5.87;;;19.10;93.50;;;;;;5018165;28;20881;-58
2021/05/29 07:25:41;;;;;;;7.77;6.57;;;19.20;91.10;;;;;;5017512;28;20496;-56
2021/05/29 07:28:10;;;;;;;7.00;6.40;;;19.30;93.30;;;;;;5017393;28;20472;-58
2021/05/29 07:30:37;;;;;;;7.40;5.70;;;19.70;89.40;;;;;;5017026;28;20496;-58
2021/05/29 07:33:07;;;;;;;6.57;5.97;;;20.10;91.90;;;;;;5018391;28;20898;-57
2021/05/29 07:35:34;;;;;;;6.77;6.27;;;20.20;88.70;;;;;;5018153;28;20570;-58
2021/05/29 07:38:00;;;;;;;6.37;5.77;;;19.90;86.60;;;;;;5017286;28;20541;-58
2021/05/29 07:40:29;;;;;;;6.73;5.63;;;19.60;90.70;;;;;;5017827;28;20464;-54
2021/05/29 07:42:56;;;;;;;5.80;5.40;;;18.60;86.30;;;;;;5018080;28;20460;-59
2021/05/29 07:45:23;;;;;;;5.87;5.37;;;17.80;90.30;;;;;;5018085;28;20464;-54
2021/05/29 07:47:51;;;;;;;6.93;5.80;;;17.20;95.70;;;;;;5018328;28;20801;-57
2021/05/29 07:50:18;;;;;;;6.70;6.17;;;16.70;99.80;;;;;;5017382;28;20611;-52
2021/05/29 07:52:48;;;;;;;7.13;6.53;;;16.60;99.90;;;;;;5017669;28;20464;-55
2021/05/29 07:55:16;;;;;;;7.00;6.20;;;16.30;99.90;;;;;;5017760;28;20813;-57
2021/05/29 07:57:42;;;;;;;7.73;7.03;;;16.80;99.90;;;;;;5017377;28;20464;-58
2021/05/29 08:00:16;;;;;;;6.87;5.97;;;17.30;99.90;;;;;;5017262;28;20467;-57
2021/05/29 08:02:48;;;;;;;7.30;6.53;;;17.80;99.70;;;;;;5012779;28;20550;-58
2021/05/29 08:05:17;;;;;;;7.83;7.07;;;18.60;95.80;;;;;;5010986;28;20476;-53
2021/05/29 08:07:45;;;;;;;7.30;6.63;;;18.50;92.00;;;;;;5016610;28;20783;-55
2021/05/29 08:10:14;;;;;;;6.57;6.07;;;17.90;92.80;;;;;;5016859;28;20507;-57
2021/05/29 08:12:41;;;;;;;7.67;6.73;;;18.40;96.20;;;;;;5017098;28;20755;-56
2021/05/29 08:15:09;;;;;;;7.43;6.70;;;18.50;94.50;;;;;;5017592;28;20475;-56
2021/05/29 08:17:35;;;;;;;5.67;5.13;;;19.00;93.20;;;;;;5017066;28;20460;-57
2021/05/29 08:20:03;;;;;;;6.10;5.50;;;18.20;91.40;;;;;;5016958;28;20512;-57
2021/05/29 08:22:32;;;;;;;7.30;5.87;;;18.20;93.20;;;;;;5017418;28;20466;-54
2021/05/29 08:25:00;;;;;;;7.13;6.33;;;18.30;89.30;;;;;;5017209;28;20471;-58
2021/05/29 08:27:26;;;;;;;6.43;5.93;;;18.00;88.50;;;;;;4997638;28;20952;-56
2021/05/29 08:29:53;;;;;;;6.43;5.83;;;17.70;92.00;;;;;;4997778;28;20511;-57
2021/05/29 08:32:19;;;;;;;7.03;6.40;;;17.90;93.20;;;;;;4997194;28;20464;-56
2021/05/29 08:34:46;;;;;;;7.63;7.13;;;16.80;93.00;;;;;;4997043;28;20472;-55
2021/05/29 08:37:16;;;;;;;7.60;6.67;;;16.50;98.10;;;;;;4997534;28;20465;-52
2021/05/29 08:39:42;;;;;;;9.17;6.53;;;16.70;98.60;;;;;;4997550;28;20584;-48
2021/05/29 08:42:13;;;;;;;6.27;5.80;;;17.00;99.50;;;;;;5001002;28;20539;-55
2021/05/29 08:44:40;;;;;;;7.33;6.10;;;18.00;92.90;;;;;;5001221;28;20584;-56
2021/05/29 08:47:09;;;;;;;7.43;6.50;;;18.50;88.40;;;;;;5001480;28;20475;-53
2021/05/29 08:49:36;;;;;;;7.43;6.80;;;19.30;86.90;;;;;;5001391;28;20496;-55
2021/05/29 08:52:03;;;;;;;5.37;4.90;;;19.50;86.30;;;;;;5001017;28;20615;-53
2021/05/29 08:54:30;;;;;;;5.50;5.00;;;18.90;77.70;;;;;;5001264;28;20464;-55
2021/05/29 08:56:57;;;;;;;4.80;4.40;;;17.50;74.80;;;;;;5000882;28;20929;-56
2021/05/29 08:59:24;;;;;;;5.20;4.80;;;17.20;81.20;;;;;;5001149;28;20519;-54
2021/05/29 09:01:52;;;;;;;7.57;6.97;;;18.00;83.10;;;;;;5001141;28;20522;-58
2021/05/29 09:04:21;;;;;;;8.50;7.70;;;18.60;81.70;;;;;;4992791;28;20469;-55
2021/05/29 09:06:50;;;;;;;7.63;6.93;;;19.30;78.30;;;;;;5000687;28;20488;-56
2021/05/29 09:09:19;;;;;;;6.57;6.07;;;20.20;77.50;;;;;;5000079;28;20492;-57
2021/05/29 09:11:48;;;;;;;8.37;7.67;;;20.50;70.00;;;;;;5000985;28;20475;-58
2021/05/29 09:14:38;;;;;;;9.40;7.10;;;20.80;67.40;;;;;;5000120;28;20559;-53
2021/05/29 09:17:08;;;;;;;8.80;8.20;;;21.70;67.20;;;;;;5000866;28;20464;-58
2021/05/29 09:20:07;;;;;;;9.23;8.63;;;21.80;67.90;;;;;;5000301;28;20449;-56
2021/05/29 09:22:36;;;;;;;9.30;8.53;;;21.40;67.90;;;;;;5000302;28;20796;-55
2021/05/29 09:25:09;;;;;;;9.10;8.50;;;21.00;67.80;;;;;;5000620;28;20465;-58
2021/05/29 09:27:41;;;;;;;9.80;9.00;;;21.40;66.90;;;;;;5020476;28;20987;-55
2021/05/29 09:30:14;;;;;;;8.33;7.77;;;21.90;67.40;;;;;;5020185;28;20951;-56
2021/05/29 09:32:43;;;;;;;9.53;8.70;;;20.90;65.70;;;;;;5019930;28;20471;-58
2021/05/29 09:35:13;;;;;;;10.20;9.40;;;20.90;65.30;;;;;;5019970;28;20464;-52
2021/05/29 09:37:40;;;;;;;13.03;9.50;;;21.60;69.30;;;;;;5020139;28;20460;-58
2021/05/29 09:40:14;;;;;;;10.30;9.40;;;22.20;64.70;;;;;;5019270;28;20468;-56
2021/05/29 09:42:42;;;;;;;9.50;8.50;;;22.20;63.30;;;;;;5019634;28;20499;-58
2021/05/29 09:45:21;;;;;;;11.33;10.50;;;23.00;62.50;;;;;;5019433;28;20510;-52
2021/05/29 09:48:12;;;;;;;11.10;10.20;;;23.20;59.60;;;;;;5020181;28;20773;-56
2021/05/29 09:50:57;;;;;;;12.30;11.30;;;23.50;58.00;;;;;;4991137;28;20495;-53
2021/05/29 09:53:27;;;;;;;14.30;13.20;;;21.70;58.90;;;;;;5019358;28;20460;-56
2021/05/29 09:55:54;;;;;;;14.30;13.30;;;22.20;60.30;;;;;;5019294;28;20462;-55
2021/05/29 09:58:21;;;;;;;14.40;13.40;;;22.70;59.70;;;;;;5019504;28;20518;-53
2021/05/29 10:00:51;;;;;;;17.03;15.70;;;23.20;57.60;;;;;;5019763;28;20460;-50
2021/05/29 10:03:17;;;;;;;15.77;14.47;;;23.40;57.30;;;;;;5007134;28;20478;-51
2021/05/29 10:05:48;;;;;;;16.10;14.90;;;23.50;55.40;;;;;;4996870;28;20476;-52
2021/05/29 10:08:16;;;;;;;16.53;15.43;;;23.30;57.00;;;;;;4999307;28;20461;-54
2021/05/29 10:10:43;;;;;;;17.60;16.20;;;21.50;59.60;;;;;;4999950;28;20652;-54
2021/05/29 10:13:12;;;;;;;17.70;16.37;;;20.90;60.70;;;;;;4999503;28;20477;-53
2021/05/29 10:15:42;;;;;;;18.07;16.77;;;20.70;64.50;;;;;;4999574;28;20780;-53
2021/05/29 10:18:11;;;;;;;18.50;16.97;;;21.50;63.30;;;;;;4999545;28;20472;-52
2021/05/29 10:20:37;;;;;;;17.63;16.33;;;20.70;62.50;;;;;;4999304;28;20956;-54
2021/05/29 10:23:06;;;;;;;15.73;14.43;;;20.40;63.40;;;;;;4999776;28;20874;-51
2021/05/29 10:25:38;;;;;;;13.27;12.17;;;20.20;67.60;;;;;;4998959;28;20523;-51
2021/05/29 10:28:13;;;;;;;16.00;14.70;;;20.90;64.90;;;;;;4999630;28;20472;-54
2021/05/29 10:30:40;;;;;;;14.20;13.23;;;21.60;61.10;;;;;;4999280;28;20940;-55
2021/05/29 11:10:31;;;;;;;9.93;9.13;;;22.10;61.80;;;;;;4343910;22;20489;-54
2021/05/29 11:12:58;;;;;;;9.73;8.83;;;21.60;59.20;;;;;;4998811;28;20460;-51
2021/05/29 11:15:57;;;;;;;9.13;8.27;;;22.40;60.20;;;;;;4998350;28;20461;-55
2021/05/29 11:18:23;;;;;;;10.03;8.10;;;23.20;54.90;;;;;;4998635;28;20523;-53
2021/05/29 11:21:08;;;;;;;8.73;8.03;;;22.10;56.50;;;;;;4997957;28;20461;-54
2021/05/29 11:23:36;;;;;;;9.60;8.07;;;21.60;62.60;;;;;;4998609;28;20559;-56
2021/05/29 11:26:07;;;;;;;32.63;10.43;;;22.20;58.60;;;;;;4998070;28;20985;-55
2021/05/29 11:28:34;;;;;;;12.67;8.50;;;21.60;57.80;;;;;;4998167;28;20905;-54
2021/05/29 11:31:02;;;;;;;10.97;9.97;;;21.30;59.60;;;;;;4997512;28;20496;-55
2021/05/29 11:33:31;;;;;;;12.97;11.63;;;21.70;58.50;;;;;;4997856;28;20545;-51
2021/05/29 11:35:58;;;;;;;8.93;8.00;;;21.50;58.70;;;;;;4998043;28;20523;-52
2021/05/29 11:38:27;;;;;;;10.63;9.63;;;21.30;58.60;;;;;;4998197;28;20514;-53
2021/05/29 12:22:15;;;;;;;19.07;17.23;;;24.20;56.90;;;;;;4894458;22;20813;-51
2021/05/29 12:24:43;;;;;;;17.30;15.80;;;23.50;55.00;;;;;;5021821;28;20485;-51
2021/05/29 12:27:11;;;;;;;22.77;20.47;;;22.40;56.40;;;;;;5021563;28;20938;-52
2021/05/29 12:29:41;;;;;;;12.97;11.90;;;23.00;58.10;;;;;;5020601;28;20491;-50
2021/05/29 12:32:10;;;;;;;19.37;17.53;;;22.40;57.90;;;;;;5020605;28;20459;-48
2021/05/29 12:34:52;;;;;;;11.43;10.43;;;22.30;58.90;;;;;;5021071;28;20472;-55
2021/05/29 12:37:27;;;;;;;13.20;11.87;;;23.40;57.00;;;;;;5021485;28;20820;-51
2021/05/29 12:39:55;;;;;;;9.20;8.40;;;23.50;57.60;;;;;;5019920;28;20482;-56
2021/05/29 12:42:34;;;;;;;8.50;7.60;;;23.70;55.70;;;;;;5020649;28;20464;-52
2021/05/29 12:45:04;;;;;;;13.57;12.40;;;23.70;53.80;;;;;;5020426;28;20470;-53
2021/05/29 12:47:32;;;;;;;9.50;8.70;;;23.30;55.00;;;;;;5020359;28;20467;-51
2021/05/29 12:50:10;;;;;;;7.87;7.27;;;23.60;55.30;;;;;;5020399;28;20491;-53
2021/05/29 12:52:38;;;;;;;8.40;7.80;;;23.90;55.80;;;;;;5017630;28;20471;-56
2021/05/29 12:55:05;;;;;;;8.20;7.60;;;23.50;53.30;;;;;;5020060;28;20464;-54
2021/05/29 12:57:39;;;;;;;8.00;7.20;;;23.10;53.70;;;;;;5001446;28;20465;-53
2021/05/29 13:00:19;;;;;;;9.00;8.13;;;23.20;54.80;;;;;;5006438;28;20459;-53
2021/05/29 13:08:30;;;;;;;9.40;6.83;;;22.30;57.70;;;;;;5021086;28;20510;-51
2021/05/29 13:11:00;;;;;;;7.73;7.10;;;22.40;55.80;;;;;;5020642;28;20595;-50
2021/05/29 13:13:29;;;;;;;7.93;7.33;;;23.50;56.20;;;;;;5020326;28;20460;-53
2021/05/29 13:16:05;;;;;;;7.00;6.40;;;24.10;55.60;;;;;;5020217;28;20464;-53
2021/05/29 13:18:34;;;;;;;7.80;7.20;;;22.90;55.20;;;;;;5020250;28;20494;-53
2021/05/29 13:21:04;;;;;;;9.73;8.83;;;21.40;57.00;;;;;;5019345;28;20496;-52
2021/05/29 13:23:41;;;;;;;7.73;7.03;;;21.20;58.10;;;;;;5020636;28;20472;-49
2021/05/29 13:26:08;;;;;;;7.40;6.80;;;20.80;60.40;;;;;;5019943;28;20463;-46
2021/05/29 13:28:35;;;;;;;7.80;7.10;;;21.70;59.40;;;;;;5019550;28;20471;-50
2021/05/29 13:31:01;;;;;;;7.67;7.00;;;21.60;59.10;;;;;;5019643;28;20963;-48
2021/05/29 13:33:32;;;;;;;7.57;6.97;;;22.50;56.90;;;;;;5020445;28;20509;-53
2021/05/29 13:35:59;;;;;;;7.60;6.90;;;21.40;55.60;;;;;;5019587;28;20475;-51
2021/05/29 13:38:26;;;;;;;8.10;7.30;;;21.80;58.10;;;;;;5019496;28;20462;-50
2021/05/29 13:40:53;;;;;;;6.60;6.10;;;21.80;56.00;;;;;;5019540;28;20912;-46
2021/05/29 13:43:20;;;;;;;7.20;6.67;;;22.40;58.10;;;;;;5020358;28;20460;-51
2021/05/29 13:45:49;;;;;;;7.20;6.70;;;23.30;55.20;;;;;;5019666;28;20459;-45
2021/05/29 13:48:16;;;;;;;8.67;6.67;;;23.60;54.20;;;;;;5020405;28;20897;-52
2021/05/29 13:50:43;;;;;;;6.60;6.10;;;23.50;53.60;;;;;;5019748;28;20557;-51
2021/05/29 13:53:10;;;;;;;7.10;6.50;;;23.20;53.40;;;;;;5019461;28;20900;-49
2021/05/29 13:55:40;;;;;;;11.90;9.00;;;23.60;53.30;;;;;;5019207;28;20475;-52
2021/05/29 13:58:09;;;;;;;8.80;8.00;;;23.10;53.90;;;;;;5018998;28;20947;-54
2021/05/29 14:00:35;;;;;;;8.37;7.67;;;22.70;55.20;;;;;;5019643;28;20460;-54
2021/05/29 14:03:02;;;;;;;7.33;6.63;;;22.80;55.10;;;;;;5014911;28;20475;-54
2021/05/29 14:05:28;;;;;;;7.87;7.07;;;23.00;54.90;;;;;;5017228;28;20490;-50
2021/05/29 14:07:55;;;;;;;7.90;7.10;;;22.80;54.10;;;;;;5018534;28;20460;-53
2021/05/29 14:10:23;;;;;;;7.60;7.00;;;22.60;55.00;;;;;;5004451;28;20506;-51
2021/05/29 14:12:50;;;;;;;13.23;11.93;;;22.70;54.30;;;;;;5018797;28;20462;-53
2021/05/29 14:15:18;;;;;;;7.93;7.23;;;23.00;53.70;;;;;;5019507;28;20587;-52
2021/05/29 14:17:44;;;;;;;7.33;6.73;;;23.40;52.80;;;;;;5018834;28;20460;-51
2021/05/29 14:20:14;;;;;;;7.27;6.77;;;22.40;54.50;;;;;;5017440;28;20487;-53
2021/05/29 14:22:40;;;;;;;8.53;7.67;;;22.70;55.60;;;;;;5018735;28;20460;-49
2021/05/29 14:25:08;;;;;;;8.97;7.50;;;23.10;53.60;;;;;;5018893;28;20468;-50
2021/05/29 14:27:34;;;;;;;7.40;6.77;;;21.90;55.50;;;;;;5017971;28;20768;-52
2021/05/29 14:30:01;;;;;;;10.70;9.70;;;22.60;55.70;;;;;;5017732;28;20498;-56
2021/05/29 14:32:28;;;;;;;10.30;9.40;;;22.40;54.10;;;;;;5017441;28;20491;-52
2021/05/29 14:34:56;;;;;;;13.03;9.43;;;22.60;54.30;;;;;;5017526;28;20463;-48
2021/05/29 14:37:23;;;;;;;9.37;8.50;;;21.80;54.80;;;;;;5018429;28;20464;-55
2021/05/29 14:39:51;;;;;;;8.57;7.77;;;21.80;56.20;;;;;;5018055;28;20460;-54
2021/05/29 14:42:18;;;;;;;9.00;8.30;;;21.60;55.30;;;;;;5018516;28;20464;-53
2021/05/29 14:44:47;;;;;;;10.33;9.47;;;22.00;54.50;;;;;;5018627;28;20522;-51
2021/05/29 14:47:16;;;;;;;10.00;9.20;;;21.90;54.00;;;;;;5018840;28;20471;-53
2021/05/29 14:49:44;;;;;;;8.60;7.90;;;22.00;54.80;;;;;;5018374;28;20491;-48
2021/05/29 14:52:10;;;;;;;10.00;9.10;;;22.20;54.70;;;;;;5018178;28;20471;-54
2021/05/29 14:54:46;;;;;;;9.90;8.50;;;22.40;54.10;;;;;;5018508;28;20468;-54
2021/05/29 14:57:12;;;;;;;10.03;8.30;;;22.50;53.80;;;;;;5018763;28;20884;-56
2021/05/29 14:59:39;;;;;;;8.17;7.13;;;22.10;53.30;;;;;;5017882;28;20464;-52
2021/05/29 15:02:05;;;;;;;14.43;13.23;;;21.90;53.00;;;;;;5018320;28;20467;-54
2021/05/29 15:04:39;;;;;;;20.80;9.57;;;21.80;54.30;;;;;;5009436;28;20472;-50
2021/05/29 15:07:08;;;;;;;10.57;9.53;;;21.70;54.00;;;;;;5017763;28;20460;-54
2021/05/29 15:09:39;;;;;;;10.70;9.80;;;22.00;53.50;;;;;;5017411;28;20464;-56
2021/05/29 15:12:05;;;;;;;24.30;21.90;;;22.30;54.70;;;;;;5017938;28;20464;-53
2021/05/29 15:14:34;;;;;;;9.40;8.30;;;22.80;54.30;;;;;;5017966;28;20471;-52
2021/05/29 15:17:01;;;;;;;15.00;13.60;;;22.90;53.00;;;;;;5017931;28;20457;-55
2021/05/29 15:19:28;;;;;;;13.50;12.17;;;22.80;53.90;;;;;;5017176;28;20526;-51
2021/05/29 15:21:55;;;;;;;10.10;9.10;;;23.10;52.50;;;;;;5000050;28;20481;-51
2021/05/29 15:24:23;;;;;;;9.90;8.13;;;21.90;53.00;;;;;;4998201;28;20976;-49
2021/05/29 15:26:53;;;;;;;20.17;10.40;;;21.40;54.60;;;;;;4998343;28;20461;-53
2021/05/29 15:29:20;;;;;;;11.30;8.67;;;21.40;56.90;;;;;;4997083;28;20488;-54
2021/05/29 15:31:47;;;;;;;13.03;10.13;;;21.40;56.90;;;;;;4996796;28;20492;-53
2021/05/29 15:34:15;;;;;;;10.20;9.10;;;21.40;57.90;;;;;;4996385;28;20512;-52
2021/05/29 15:36:43;;;;;;;8.90;8.20;;;20.90;57.90;;;;;;4997210;28;20465;-46
2021/05/29 15:39:13;;;;;;;13.77;11.03;;;21.40;56.60;;;;;;4996737;28;20465;-56
2021/05/29 15:41:41;;;;;;;31.80;28.50;;;21.80;56.00;;;;;;4997203;28;20461;-49
2021/05/29 15:44:08;;;;;;;24.83;22.10;;;21.70;55.50;;;;;;4996987;28;20465;-56
2021/05/29 15:46:34;;;;;;;9.13;8.23;;;21.90;56.40;;;;;;4997729;28;20485;-51
2021/05/29 15:49:01;;;;;;;16.53;14.93;;;21.30;56.90;;;;;;4997398;28;20461;-52
2021/05/29 15:51:28;;;;;;;9.77;8.90;;;21.60;56.40;;;;;;4999444;28;20503;-52
2021/05/29 15:53:55;;;;;;;10.07;9.07;;;21.70;55.90;;;;;;4998153;28;20472;-51
2021/05/29 15:56:21;;;;;;;15.83;13.37;;;21.70;55.60;;;;;;4997853;28;20465;-55
2021/05/29 15:58:49;;;;;;;10.97;9.33;;;21.10;55.30;;;;;;4998028;28;20516;-52
2021/05/29 16:01:16;;;;;;;8.73;7.93;;;21.30;56.00;;;;;;4998025;28;20488;-49
2021/05/29 16:03:46;;;;;;;8.50;7.80;;;21.20;55.70;;;;;;4992169;28;20473;-50
2021/05/29 16:06:17;;;;;;;8.83;8.00;;;21.40;56.10;;;;;;4996411;28;20453;-48
2021/05/29 16:08:45;;;;;;;14.43;8.30;;;21.10;55.60;;;;;;4997954;28;20457;-48
2021/05/29 16:11:14;;;;;;;8.63;7.27;;;20.20;56.70;;;;;;4997541;28;20535;-49
2021/05/29 16:13:41;;;;;;;8.80;7.87;;;19.60;57.30;;;;;;4997755;28;20765;-48
2021/05/29 16:16:08;;;;;;;10.43;9.20;;;19.90;58.80;;;;;;4997652;28;20469;-49